Time;durP1;ratioP1;P1;durP2;ratioP2;P2;SDS_P1;SDS_P2;PMS_P1;PMS_P2;Temp;Humidity;BMP_temperature;BMP_pressure;BME280_temperature;BME280_humidity;BME280_pressure;Samples;Min_cycle;Max_cycle;Signal;HPM_P1;HPM_P2
2021/06/16 00:00:13;;;;;;;2.97;0.90;;;18.30;74.00;;;;;;5026193;28;20025;-69
2021/06/16 00:02:40;;;;;;;5.13;0.90;;;18.30;73.60;;;;;;5026761;28;20029;-69
2021/06/16 00:05:08;;;;;;;2.55;0.90;;;18.30;73.00;;;;;;5026611;28;20029;-68
2021/06/16 00:07:34;;;;;;;1.65;0.90;;;18.20;72.30;;;;;;5026798;28;20819;-69
2021/06/16 00:10:00;;;;;;;9.18;1.23;;;18.20;72.40;;;;;;5026355;28;20057;-69
2021/06/16 00:12:26;;;;;;;2.58;0.80;;;18.20;72.70;;;;;;5026047;28;20441;-70
2021/06/16 00:14:53;;;;;;;1.80;0.90;;;18.20;72.40;;;;;;5026687;28;20029;-68
2021/06/16 00:17:20;;;;;;;3.75;1.02;;;18.10;72.50;;;;;;5025981;28;20490;-69
2021/06/16 00:19:45;;;;;;;3.35;1.10;;;18.20;70.50;;;;;;5026379;28;20029;-69
2021/06/16 00:22:11;;;;;;;1.60;0.60;;;18.20;69.30;;;;;;5026476;28;20038;-69
2021/06/16 00:24:37;;;;;;;2.15;0.85;;;18.30;69.40;;;;;;5026240;28;20030;-69
2021/06/16 00:27:04;;;;;;;2.63;1.00;;;18.30;69.20;;;;;;5026180;28;20026;-69
2021/06/16 00:29:29;;;;;;;6.68;1.23;;;18.30;67.60;;;;;;5026061;28;20038;-68
2021/06/16 00:31:55;;;;;;;2.17;0.63;;;18.50;62.90;;;;;;5026388;28;20571;-69
2021/06/16 00:34:21;;;;;;;4.18;0.95;;;18.60;61.50;;;;;;5026513;28;20034;-68
2021/06/16 00:36:46;;;;;;;2.13;0.90;;;18.80;61.10;;;;;;5025810;28;20056;-69
2021/06/16 00:39:13;;;;;;;5.07;1.20;;;18.90;59.50;;;;;;5024762;28;20049;-69
2021/06/16 00:41:38;;;;;;;2.95;1.02;;;19.00;60.90;;;;;;5025659;28;20029;-68
2021/06/16 00:44:05;;;;;;;4.00;1.10;;;19.00;62.10;;;;;;5026306;28;20075;-68
2021/06/16 00:46:31;;;;;;;3.20;0.85;;;18.90;63.00;;;;;;5026208;28;20033;-69
2021/06/16 00:48:57;;;;;;;2.70;1.15;;;18.80;63.30;;;;;;5025882;28;20026;-68
2021/06/16 00:51:23;;;;;;;3.65;0.95;;;18.80;62.80;;;;;;5025974;28;20045;-69
2021/06/16 00:53:48;;;;;;;4.63;0.93;;;18.70;63.00;;;;;;5025747;28;20033;-69
2021/06/16 00:56:15;;;;;;;4.50;0.80;;;18.60;63.20;;;;;;5025717;28;20033;-69
2021/06/16 00:58:41;;;;;;;4.38;1.02;;;18.60;64.00;;;;;;5026185;28;20037;-68
2021/06/16 01:01:14;;;;;;;3.45;0.95;;;18.50;63.40;;;;;;5025569;28;20026;-69
2021/06/16 01:03:52;;;;;;;4.28;1.05;;;18.40;63.50;;;;;;5025864;28;20763;-70
2021/06/16 01:06:22;;;;;;;7.00;1.00;;;18.40;62.10;;;;;;5025750;28;20693;-68
2021/06/16 01:09:11;;;;;;;7.22;1.08;;;18.50;61.70;;;;;;5026484;28;20464;-69
2021/06/16 01:11:46;;;;;;;3.83;0.88;;;18.50;62.60;;;;;;5019366;28;20054;-69
2021/06/16 01:14:19;;;;;;;1.92;0.73;;;18.40;62.30;;;;;;5030281;28;20101;-69
2021/06/16 01:16:53;;;;;;;3.90;0.93;;;18.50;62.20;;;;;;5029565;28;20116;-68
2021/06/16 01:19:55;;;;;;;3.58;0.80;;;18.40;63.70;;;;;;5029790;28;20509;-68
2021/06/16 01:22:58;;;;;;;2.60;0.93;;;18.30;64.30;;;;;;5029364;28;20067;-69
2021/06/16 01:25:29;;;;;;;3.00;0.80;;;18.20;65.10;;;;;;5029655;28;20028;-69
2021/06/16 01:27:56;;;;;;;1.92;0.80;;;18.10;65.50;;;;;;5027494;28;20033;-69
2021/06/16 01:30:24;;;;;;;7.15;1.00;;;18.00;65.70;;;;;;5028410;28;20083;-69
2021/06/16 01:32:52;;;;;;;2.60;1.10;;;17.90;65.90;;;;;;5029331;28;20025;-67
2021/06/16 01:35:18;;;;;;;3.70;1.25;;;17.80;66.00;;;;;;5029318;28;20061;-68
2021/06/16 01:37:44;;;;;;;2.03;1.05;;;17.80;66.00;;;;;;5029655;28;20486;-68
2021/06/16 01:40:13;;;;;;;2.65;0.90;;;17.70;66.80;;;;;;5029539;28;20044;-69
2021/06/16 01:42:40;;;;;;;2.50;1.02;;;17.70;66.30;;;;;;5028791;28;20398;-68
2021/06/16 01:45:07;;;;;;;4.38;1.13;;;17.60;66.50;;;;;;5029318;28;20036;-68
2021/06/16 01:47:34;;;;;;;11.98;1.13;;;17.60;66.80;;;;;;5028145;28;20140;-68
2021/06/16 01:50:03;;;;;;;2.25;0.82;;;17.50;66.10;;;;;;5027592;28;20038;-68
2021/06/16 01:52:30;;;;;;;6.82;0.88;;;17.60;65.80;;;;;;5026404;28;20171;-68
2021/06/16 01:54:57;;;;;;;3.88;1.08;;;17.60;64.90;;;;;;5028248;28;20037;-68
2021/06/16 01:57:24;;;;;;;3.28;1.10;;;17.70;64.00;;;;;;5027266;28;20033;-70
2021/06/16 01:59:52;;;;;;;2.53;1.30;;;17.90;63.10;;;;;;5027778;28;20051;-68
2021/06/16 02:02:18;;;;;;;3.30;0.80;;;18.20;62.60;;;;;;5028844;28;20034;-69
2021/06/16 02:04:44;;;;;;;3.72;0.90;;;18.40;61.70;;;;;;5028653;28;20071;-69
2021/06/16 02:07:17;;;;;;;4.28;1.50;;;18.60;60.90;;;;;;5028515;28;20120;-69
2021/06/16 02:09:45;;;;;;;5.22;0.90;;;18.70;60.70;;;;;;5029127;28;20034;-70
2021/06/16 02:12:13;;;;;;;4.95;1.25;;;18.80;59.90;;;;;;5028471;28;20041;-69
2021/06/16 02:14:42;;;;;;;2.92;1.20;;;19.00;59.70;;;;;;5028719;28;20026;-70
2021/06/16 02:17:11;;;;;;;4.60;1.13;;;19.10;59.30;;;;;;5028539;28;20025;-70
2021/06/16 02:19:39;;;;;;;4.20;1.13;;;19.20;59.10;;;;;;5028616;28;20029;-69
2021/06/16 02:22:07;;;;;;;7.38;1.27;;;19.20;59.00;;;;;;5028128;28;20036;-69
2021/06/16 02:24:33;;;;;;;2.47;1.20;;;19.30;58.40;;;;;;5028034;28;20029;-70
2021/06/16 02:26:59;;;;;;;2.85;1.02;;;19.30;58.20;;;;;;5027883;28;20029;-69
2021/06/16 02:29:30;;;;;;;7.45;1.10;;;19.40;58.80;;;;;;5028415;28;20115;-69
2021/06/16 02:31:56;;;;;;;6.80;1.02;;;19.40;58.10;;;;;;5028187;28;20112;-68
2021/06/16 02:34:24;;;;;;;3.00;1.02;;;19.40;58.00;;;;;;5028624;28;20029;-69
2021/06/16 02:36:53;;;;;;;3.45;1.23;;;19.50;57.50;;;;;;5028309;28;20514;-69
2021/06/16 02:39:24;;;;;;;3.47;1.48;;;19.50;57.30;;;;;;5028261;28;20053;-69
2021/06/16 02:41:50;;;;;;;3.20;1.25;;;19.50;57.30;;;;;;5027681;28;20071;-67
2021/06/16 02:44:17;;;;;;;3.05;1.00;;;19.50;57.40;;;;;;5026574;28;20036;-68
2021/06/16 02:46:48;;;;;;;2.13;0.90;;;19.50;57.80;;;;;;5028222;28;20044;-69
2021/06/16 02:49:14;;;;;;;6.97;1.20;;;19.40;57.90;;;;;;5027755;28;20132;-70
2021/06/16 02:51:41;;;;;;;5.05;0.90;;;19.40;58.00;;;;;;5026799;28;20418;-69
2021/06/16 02:54:16;;;;;;;7.95;1.15;;;19.40;58.10;;;;;;5026607;28;20111;-70
2021/06/16 02:56:45;;;;;;;4.40;1.30;;;19.40;58.00;;;;;;5027788;28;20022;-70
2021/06/16 02:59:12;;;;;;;4.32;1.48;;;19.40;57.90;;;;;;5027618;28;20017;-70
2021/06/16 03:01:38;;;;;;;4.22;1.45;;;19.50;57.90;;;;;;5027943;28;20772;-70
2021/06/16 03:04:05;;;;;;;5.50;1.23;;;19.50;57.70;;;;;;5027597;28;20030;-68
2021/06/16 03:06:32;;;;;;;4.70;1.25;;;19.60;57.40;;;;;;5027549;28;20545;-69
2021/06/16 03:08:58;;;;;;;3.72;1.23;;;19.70;57.40;;;;;;5027944;28;20020;-69
2021/06/16 03:11:25;;;;;;;5.40;1.65;;;19.70;57.60;;;;;;5027106;28;20046;-69
2021/06/16 03:13:52;;;;;;;4.07;1.30;;;19.70;57.50;;;;;;5027502;28;20022;-69
2021/06/16 03:16:18;;;;;;;4.25;1.15;;;19.70;57.20;;;;;;5027634;28;20042;-70
2021/06/16 03:18:46;;;;;;;4.78;1.30;;;19.80;57.50;;;;;;5026311;28;20022;-70
2021/06/16 03:21:13;;;;;;;5.00;1.25;;;19.80;57.50;;;;;;5025692;28;20675;-69
2021/06/16 03:23:40;;;;;;;7.15;1.35;;;19.80;57.10;;;;;;5027720;28;20021;-70
2021/06/16 03:26:06;;;;;;;6.95;1.20;;;19.80;57.30;;;;;;5026604;28;20385;-70
2021/06/16 03:28:35;;;;;;;5.53;1.52;;;19.80;57.40;;;;;;5027467;28;20533;-69
2021/06/16 03:31:02;;;;;;;4.60;1.27;;;19.80;57.50;;;;;;5027069;28;20025;-69
2021/06/16 03:33:28;;;;;;;6.18;1.35;;;19.70;57.60;;;;;;5027122;28;20033;-69
2021/06/16 03:35:55;;;;;;;4.15;1.13;;;19.70;58.10;;;;;;5026173;28;20088;-68
2021/06/16 03:38:22;;;;;;;3.15;1.17;;;19.70;58.60;;;;;;5027503;28;20029;-68
2021/06/16 03:40:53;;;;;;;5.57;1.48;;;19.60;58.60;;;;;;5026407;28;20065;-69
2021/06/16 03:43:20;;;;;;;4.65;1.00;;;19.60;58.90;;;;;;5027013;28;20047;-69
2021/06/16 03:45:46;;;;;;;6.60;1.50;;;19.60;59.10;;;;;;5026912;28;20025;-69
2021/06/16 03:48:16;;;;;;;4.20;1.33;;;19.60;59.10;;;;;;5027062;28;20552;-69
2021/06/16 03:50:42;;;;;;;2.88;1.23;;;19.60;59.50;;;;;;5027032;28;20112;-69
2021/06/16 03:53:12;;;;;;;2.47;0.85;;;19.60;59.50;;;;;;5026929;28;20038;-69
2021/06/16 03:55:41;;;;;;;5.75;1.23;;;19.70;59.20;;;;;;5026355;28;20492;-68
2021/06/16 03:58:09;;;;;;;4.63;1.50;;;19.80;59.40;;;;;;5026983;28;20056;-69
2021/06/16 04:00:35;;;;;;;3.80;1.42;;;20.10;58.50;;;;;;5026776;28;20021;-69
2021/06/16 04:03:02;;;;;;;5.38;1.02;;;20.40;57.00;;;;;;5026335;28;20477;-69
2021/06/16 04:05:28;;;;;;;4.53;1.38;;;20.70;56.10;;;;;;5026594;28;20071;-70
2021/06/16 04:07:55;;;;;;;4.47;1.40;;;20.90;55.90;;;;;;5026686;28;20490;-70
2021/06/16 04:10:23;;;;;;;4.50;0.90;;;21.30;54.60;;;;;;5025962;28;20079;-70
2021/06/16 04:12:48;;;;;;;2.90;1.02;;;21.40;53.70;;;;;;5026594;28;20064;-68
2021/06/16 04:15:17;;;;;;;4.10;1.45;;;21.50;53.70;;;;;;5026200;28;20075;-69
2021/06/16 04:17:43;;;;;;;6.15;1.20;;;21.40;53.60;;;;;;5026903;28;20426;-69
2021/06/16 04:20:09;;;;;;;6.55;1.13;;;21.30;54.20;;;;;;5026234;28;20494;-69
2021/06/16 04:22:36;;;;;;;4.93;0.77;;;21.30;53.90;;;;;;5026094;28;20021;-69
2021/06/16 04:25:04;;;;;;;2.30;0.93;;;21.30;53.80;;;;;;5025069;28;20486;-69
2021/06/16 04:27:29;;;;;;;5.82;1.48;;;21.20;54.30;;;;;;5024688;28;20810;-69
2021/06/16 04:29:55;;;;;;;6.32;1.40;;;21.20;54.50;;;;;;5026438;28;20121;-68
2021/06/16 04:32:21;;;;;;;4.15;1.20;;;21.20;54.00;;;;;;5026314;28;20049;-69
2021/06/16 04:34:47;;;;;;;2.17;0.93;;;21.20;55.10;;;;;;5025904;28;20026;-69
2021/06/16 04:37:12;;;;;;;4.53;1.30;;;21.20;53.80;;;;;;5026384;28;20303;-69
2021/06/16 04:39:38;;;;;;;5.35;1.30;;;21.10;54.40;;;;;;5025902;28;20104;-69
2021/06/16 04:42:05;;;;;;;3.28;1.30;;;21.10;54.70;;;;;;5025937;28;20508;-69
2021/06/16 04:44:30;;;;;;;5.03;1.08;;;21.00;54.20;;;;;;5026107;28;20037;-69
2021/06/16 04:46:56;;;;;;;2.42;0.80;;;21.10;54.10;;;;;;5025925;28;20515;-69
2021/06/16 04:49:22;;;;;;;2.28;1.23;;;21.20;54.40;;;;;;5030393;28;20037;-69
2021/06/16 04:51:48;;;;;;;3.97;1.05;;;21.30;54.80;;;;;;5030261;28;20429;-69
2021/06/16 04:54:14;;;;;;;9.13;2.22;;;21.50;54.80;;;;;;5029559;28;20684;-68
2021/06/16 04:56:40;;;;;;;4.47;1.23;;;21.70;53.10;;;;;;5030343;28;20113;-69
2021/06/16 04:59:06;;;;;;;7.18;1.38;;;21.80;53.30;;;;;;5029903;28;20116;-69
2021/06/16 05:01:34;;;;;;;5.93;1.70;;;21.90;52.40;;;;;;5030136;28;20104;-69
2021/06/16 05:04:00;;;;;;;6.90;1.70;;;22.10;52.50;;;;;;5030160;28;20017;-68
2021/06/16 05:06:26;;;;;;;5.82;1.83;;;22.20;51.50;;;;;;5028710;28;20092;-69
2021/06/16 05:08:51;;;;;;;7.35;1.63;;;22.30;51.10;;;;;;5029378;28;20033;-69
2021/06/16 05:11:17;;;;;;;6.60;1.58;;;22.30;50.40;;;;;;5029418;28;20045;-70
2021/06/16 05:13:42;;;;;;;6.25;1.05;;;22.40;50.30;;;;;;5029904;28;20051;-69
2021/06/16 05:16:08;;;;;;;5.18;1.60;;;22.50;49.70;;;;;;5029979;28;20508;-69
2021/06/16 05:18:34;;;;;;;4.00;1.35;;;22.60;50.30;;;;;;5029404;28;20025;-69
2021/06/16 05:21:00;;;;;;;4.82;1.42;;;22.70;51.10;;;;;;5028333;28;20032;-69
2021/06/16 05:23:30;;;;;;;7.90;1.58;;;22.80;50.20;;;;;;5029111;28;20532;-69
2021/06/16 05:25:56;;;;;;;14.07;1.77;;;22.90;49.60;;;;;;5028323;28;20037;-69
2021/06/16 05:28:22;;;;;;;3.90;1.85;;;22.80;50.60;;;;;;5029677;28;20252;-70
2021/06/16 05:30:48;;;;;;;5.63;1.90;;;22.90;49.70;;;;;;5029353;28;20441;-68
2021/06/16 05:33:13;;;;;;;4.13;1.52;;;23.00;49.20;;;;;;5029372;28;20029;-69
2021/06/16 05:35:39;;;;;;;5.25;1.70;;;23.10;49.30;;;;;;5029131;28;20514;-70
2021/06/16 05:38:05;;;;;;;9.57;1.52;;;23.20;48.90;;;;;;5029062;28;20029;-69
2021/06/16 05:40:31;;;;;;;4.05;1.42;;;23.30;49.20;;;;;;5029461;28;20497;-69
2021/06/16 05:42:57;;;;;;;5.80;1.48;;;23.60;48.90;;;;;;5029436;28;20057;-69
2021/06/16 05:45:22;;;;;;;5.93;1.73;;;23.90;47.50;;;;;;5028547;28;20075;-69
2021/06/16 05:47:48;;;;;;;2.53;1.40;;;24.70;46.60;;;;;;5027432;28;20060;-70
2021/06/16 05:50:14;;;;;;;5.97;2.08;;;25.50;45.00;;;;;;5028949;28;20108;-68
2021/06/16 05:52:40;;;;;;;6.75;1.65;;;26.30;41.50;;;;;;5027706;28;20120;-69
2021/06/16 05:55:07;;;;;;;3.30;1.20;;;27.00;40.10;;;;;;5028377;28;20108;-69
2021/06/16 05:57:32;;;;;;;5.13;1.55;;;27.50;39.60;;;;;;5028919;28;20037;-70
2021/06/16 05:59:58;;;;;;;3.13;1.60;;;28.70;36.60;;;;;;5028296;28;20036;-70
2021/06/16 06:02:25;;;;;;;3.72;1.38;;;29.40;34.80;;;;;;5029046;28;20033;-71
2021/06/16 06:04:50;;;;;;;5.45;1.55;;;30.00;34.40;;;;;;5029102;28;20018;-70
2021/06/16 06:07:16;;;;;;;6.30;1.25;;;30.60;32.70;;;;;;5028748;28;20032;-70
2021/06/16 06:09:42;;;;;;;4.35;1.45;;;31.30;31.40;;;;;;5028052;28;20761;-70
2021/06/16 06:12:08;;;;;;;3.17;1.50;;;31.80;30.60;;;;;;5028769;28;20077;-70
2021/06/16 06:14:34;;;;;;;5.78;1.10;;;32.00;30.60;;;;;;5028427;28;20024;-69
2021/06/16 06:16:59;;;;;;;2.78;1.40;;;32.30;29.70;;;;;;5028792;28;20029;-70
2021/06/16 06:19:25;;;;;;;6.60;1.40;;;32.60;29.60;;;;;;5028059;28;20025;-70
2021/06/16 06:21:51;;;;;;;3.30;1.63;;;32.90;30.00;;;;;;5028540;28;20120;-69
2021/06/16 06:24:16;;;;;;;3.50;1.35;;;33.50;29.20;;;;;;5027800;28;20486;-70
2021/06/16 06:26:42;;;;;;;4.15;1.33;;;34.00;27.80;;;;;;5028633;28;20065;-69
2021/06/16 06:29:08;;;;;;;2.47;1.27;;;33.60;27.60;;;;;;5028491;28;20032;-70
2021/06/16 06:31:33;;;;;;;7.80;1.65;;;33.50;28.20;;;;;;5027876;28;20060;-70
2021/06/16 06:33:59;;;;;;;11.63;1.30;;;33.80;28.20;;;;;;5028504;28;20057;-70
2021/06/16 06:36:25;;;;;;;3.22;1.40;;;33.70;28.20;;;;;;5028086;28;20053;-70
2021/06/16 06:38:52;;;;;;;7.95;1.70;;;33.50;27.90;;;;;;5027732;28;20034;-70
2021/06/16 06:41:18;;;;;;;2.45;1.35;;;33.50;27.90;;;;;;5028233;28;20029;-70
2021/06/16 06:43:44;;;;;;;10.30;1.52;;;33.50;28.50;;;;;;5028145;28;20036;-70
2021/06/16 06:46:10;;;;;;;5.88;1.42;;;33.40;27.90;;;;;;5028121;28;20106;-70
2021/06/16 06:48:35;;;;;;;4.25;1.55;;;33.20;28.80;;;;;;5028218;28;20048;-71
2021/06/16 06:51:01;;;;;;;7.15;1.65;;;33.50;28.60;;;;;;5027652;28;20094;-70
2021/06/16 06:53:29;;;;;;;6.68;1.90;;;33.60;28.20;;;;;;5027751;28;20081;-70
2021/06/16 06:55:59;;;;;;;5.80;1.70;;;33.70;28.00;;;;;;5027971;28;20116;-69
2021/06/16 06:58:25;;;;;;;2.70;1.42;;;33.80;27.70;;;;;;5027438;28;20105;-69
2021/06/16 07:00:51;;;;;;;3.95;1.45;;;33.90;27.80;;;;;;5027891;28;20040;-70
2021/06/16 07:03:17;;;;;;;2.65;1.10;;;33.90;27.90;;;;;;5027287;28;20018;-71
2021/06/16 07:05:43;;;;;;;4.45;1.58;;;34.00;27.70;;;;;;5027712;28;20033;-69
2021/06/16 07:08:09;;;;;;;2.58;1.05;;;34.40;27.10;;;;;;5027122;28;20030;-70
2021/06/16 07:10:34;;;;;;;3.92;1.80;;;34.20;26.70;;;;;;5027201;28;20033;-70
2021/06/16 07:13:00;;;;;;;6.55;1.60;;;33.80;26.70;;;;;;5027539;28;20060;-71
2021/06/16 07:15:26;;;;;;;3.30;1.15;;;33.30;27.70;;;;;;5027246;28;20034;-70
2021/06/16 07:17:51;;;;;;;6.15;1.40;;;33.10;27.80;;;;;;5027541;28;20543;-71
2021/06/16 07:20:18;;;;;;;2.60;1.25;;;33.10;28.30;;;;;;5027418;28;20031;-69
2021/06/16 07:22:47;;;;;;;8.38;2.20;;;33.20;27.60;;;;;;5027016;28;20100;-69
2021/06/16 07:25:13;;;;;;;2.85;1.38;;;33.10;28.00;;;;;;5027080;28;20433;-69
2021/06/16 07:27:39;;;;;;;5.10;1.30;;;33.30;27.80;;;;;;5027277;28;20021;-69
2021/06/16 07:30:06;;;;;;;8.73;1.80;;;33.40;27.80;;;;;;5026945;28;20037;-70
2021/06/16 07:32:33;;;;;;;3.38;1.67;;;33.50;27.50;;;;;;5027010;28;20498;-68
2021/06/16 07:34:59;;;;;;;3.83;1.30;;;33.20;27.70;;;;;;5026974;28;20159;-69
2021/06/16 07:37:26;;;;;;;8.68;1.67;;;33.20;28.30;;;;;;5026277;28;20125;-69
2021/06/16 07:39:53;;;;;;;3.53;1.30;;;33.20;27.90;;;;;;5025429;28;20133;-69
2021/06/16 07:42:19;;;;;;;8.40;1.70;;;33.10;27.30;;;;;;5026562;28;20386;-68
2021/06/16 07:44:45;;;;;;;2.45;1.30;;;32.60;28.20;;;;;;5027103;28;20143;-69
2021/06/16 07:47:10;;;;;;;2.83;1.10;;;32.70;27.70;;;;;;5026407;28;20060;-69
2021/06/16 07:49:36;;;;;;;2.83;1.10;;;32.70;28.40;;;;;;5026670;28;20410;-70
2021/06/16 07:52:03;;;;;;;2.20;1.45;;;32.70;29.00;;;;;;5026198;28;20167;-69
2021/06/16 07:54:29;;;;;;;7.28;1.63;;;32.70;29.50;;;;;;5026305;28;20057;-70
2021/06/16 07:56:54;;;;;;;2.45;1.25;;;32.60;28.50;;;;;;5026842;28;20105;-68
2021/06/16 07:59:20;;;;;;;1.50;1.02;;;32.40;28.40;;;;;;5026037;28;20050;-70
2021/06/16 08:01:47;;;;;;;7.38;1.55;;;32.30;29.10;;;;;;5026725;28;20094;-69
2021/06/16 08:04:13;;;;;;;4.70;1.90;;;32.40;29.20;;;;;;5026833;28;20113;-69
2021/06/16 08:06:38;;;;;;;7.10;1.60;;;32.50;28.10;;;;;;5025940;28;20108;-69
2021/06/16 08:09:04;;;;;;;3.80;1.20;;;32.70;28.50;;;;;;5026406;28;20025;-68
2021/06/16 08:11:30;;;;;;;4.72;1.50;;;32.50;29.00;;;;;;5025358;28;20391;-69
2021/06/16 08:13:56;;;;;;;4.15;1.50;;;32.50;28.80;;;;;;5026437;28;20052;-69
2021/06/16 08:16:22;;;;;;;4.60;1.67;;;32.40;29.30;;;;;;5027144;28;20090;-68
2021/06/16 08:18:50;;;;;;;2.22;1.40;;;32.50;29.60;;;;;;5026513;28;20110;-69
2021/06/16 08:21:17;;;;;;;7.88;4.30;;;32.60;28.50;;;;;;5025614;28;20394;-70
2021/06/16 08:23:46;;;;;;;5.30;1.00;;;32.50;28.60;;;;;;5025936;28;20414;-70
2021/06/16 08:26:13;;;;;;;2.15;1.27;;;32.50;28.30;;;;;;5026529;28;20025;-69
2021/06/16 08:28:39;;;;;;;4.95;1.70;;;32.60;28.40;;;;;;5026482;28;20037;-69
2021/06/16 08:31:05;;;;;;;5.45;1.58;;;32.20;29.00;;;;;;5026242;28;20116;-69
2021/06/16 08:33:31;;;;;;;5.72;1.70;;;32.30;29.30;;;;;;5025997;28;20175;-69
2021/06/16 08:35:57;;;;;;;3.92;1.60;;;32.40;28.80;;;;;;5024496;28;20112;-69
2021/06/16 08:38:22;;;;;;;6.63;1.50;;;32.50;28.40;;;;;;5025944;28;20065;-69
2021/06/16 08:40:49;;;;;;;7.70;1.38;;;32.30;28.90;;;;;;5025901;28;20098;-68
2021/06/16 08:43:15;;;;;;;3.42;1.48;;;32.30;29.70;;;;;;5026071;28;20094;-69
2021/06/16 08:45:42;;;;;;;5.95;1.40;;;32.20;29.90;;;;;;5026320;28;20034;-69
2021/06/16 08:48:09;;;;;;;3.22;1.33;;;32.30;29.30;;;;;;5026160;28;20041;-68
2021/06/16 08:50:35;;;;;;;2.38;0.93;;;32.60;28.70;;;;;;5025591;28;20022;-69
2021/06/16 08:53:02;;;;;;;2.33;1.33;;;32.60;28.50;;;;;;5025156;28;20100;-69
2021/06/16 08:55:27;;;;;;;5.32;1.10;;;32.10;29.30;;;;;;5025815;28;20025;-70
2021/06/16 08:57:53;;;;;;;4.72;1.40;;;32.40;29.30;;;;;;5026035;28;20518;-69
2021/06/16 09:00:20;;;;;;;3.95;1.17;;;32.50;29.40;;;;;;5025908;28;20075;-69
2021/06/16 09:02:46;;;;;;;4.35;1.17;;;32.30;28.90;;;;;;5025923;28;20060;-70
2021/06/16 09:05:14;;;;;;;4.25;1.27;;;32.60;29.30;;;;;;5025543;28;20087;-69
2021/06/16 09:07:43;;;;;;;2.58;1.15;;;32.50;28.70;;;;;;5025608;28;20307;-69
2021/06/16 09:10:15;;;;;;;5.97;1.40;;;32.80;28.10;;;;;;5026182;28;20095;-69
2021/06/16 09:13:07;;;;;;;8.00;1.40;;;32.50;29.20;;;;;;5025804;28;20064;-69
2021/06/16 09:15:33;;;;;;;3.55;1.65;;;32.60;28.60;;;;;;5026034;28;20040;-69
2021/06/16 09:18:14;;;;;;;2.95;1.10;;;32.60;28.40;;;;;;5025561;28;20025;-69
2021/06/16 09:20:46;;;;;;;4.85;1.05;;;32.50;29.10;;;;;;5025863;28;20030;-69
2021/06/16 09:23:21;;;;;;;5.63;1.08;;;32.60;29.20;;;;;;5025482;28;20025;-69
2021/06/16 09:26:22;;;;;;;4.57;1.57;;;32.60;29.30;;;;;;5025874;28;20497;-69
2021/06/16 09:28:52;;;;;;;3.47;1.25;;;32.60;29.30;;;;;;5025892;28;20383;-69
2021/06/16 09:31:21;;;;;;;4.03;1.25;;;32.60;29.60;;;;;;5025208;28;20088;-69
2021/06/16 09:33:48;;;;;;;6.65;1.42;;;32.60;29.00;;;;;;5028393;28;20030;-68
2021/06/16 09:36:24;;;;;;;2.33;1.02;;;32.60;28.60;;;;;;5028658;28;20058;-69
2021/06/16 09:38:50;;;;;;;7.13;1.30;;;33.00;28.90;;;;;;5027780;28;20116;-69
2021/06/16 09:41:21;;;;;;;3.67;1.00;;;33.10;28.70;;;;;;5029286;28;20022;-69
2021/06/16 09:43:54;;;;;;;8.10;1.85;;;33.40;28.60;;;;;;5029188;28;20033;-69
2021/06/16 09:46:20;;;;;;;2.70;1.50;;;33.40;28.80;;;;;;5028176;28;20029;-69
2021/06/16 09:48:46;;;;;;;3.40;1.75;;;33.70;29.40;;;;;;5028914;28;20044;-69
2021/06/16 09:51:25;;;;;;;5.68;1.70;;;33.80;28.40;;;;;;5028746;28;20128;-69
2021/06/16 09:54:21;;;;;;;11.98;2.22;;;33.50;28.30;;;;;;5029250;28;20030;-69
2021/06/16 09:57:03;;;;;;;5.35;1.13;;;33.20;28.50;;;;;;5029505;28;20040;-68
2021/06/16 09:59:41;;;;;;;2.33;1.20;;;32.80;28.70;;;;;;5028658;28;20120;-68
2021/06/16 10:02:22;;;;;;;5.78;1.27;;;32.10;30.10;;;;;;5027616;28;20095;-70
2021/06/16 10:04:54;;;;;;;7.28;1.33;;;31.60;29.70;;;;;;5028864;28;20079;-70
2021/06/16 10:07:24;;;;;;;7.50;1.20;;;30.90;30.70;;;;;;5027937;28;20031;-70
2021/06/16 10:09:55;;;;;;;6.45;1.10;;;30.30;31.90;;;;;;5029087;28;20062;-70
2021/06/16 10:12:23;;;;;;;1.95;1.23;;;30.00;31.80;;;;;;5028656;28;20040;-70
2021/06/16 10:14:49;;;;;;;3.38;1.38;;;29.80;32.50;;;;;;5028358;28;20041;-71
2021/06/16 10:17:15;;;;;;;3.05;1.10;;;29.60;32.70;;;;;;5028411;28;20041;-70
2021/06/16 10:19:43;;;;;;;4.85;1.40;;;29.60;33.50;;;;;;5028518;28;20036;-70
2021/06/16 10:22:09;;;;;;;3.50;1.08;;;29.50;34.50;;;;;;5028060;28;20167;-68
2021/06/16 10:24:35;;;;;;;2.58;0.95;;;29.40;34.00;;;;;;5026963;28;20025;-68
2021/06/16 10:27:03;;;;;;;7.00;1.17;;;29.20;32.80;;;;;;5028690;28;20036;-68
2021/06/16 10:29:38;;;;;;;3.42;1.25;;;29.00;33.20;;;;;;5028436;28;20426;-68
2021/06/16 10:32:09;;;;;;;4.88;1.20;;;28.80;34.30;;;;;;5026910;28;20045;-68
2021/06/16 10:34:53;;;;;;;3.17;0.90;;;28.60;34.20;;;;;;5027836;28;20033;-67
2021/06/16 10:37:29;;;;;;;8.90;1.00;;;28.60;33.50;;;;;;5027951;28;20053;-68
2021/06/16 10:40:18;;;;;;;2.80;1.08;;;28.60;35.10;;;;;;5028135;28;20025;-69
2021/06/16 10:43:02;;;;;;;3.70;1.02;;;28.70;33.90;;;;;;5024294;28;20505;-71
2021/06/16 10:45:33;;;;;;;4.63;1.23;;;28.60;33.80;;;;;;5027614;28;20112;-70
2021/06/16 10:48:03;;;;;;;7.43;1.02;;;28.60;33.60;;;;;;5026606;28;20505;-71
2021/06/16 10:50:48;;;;;;;8.25;1.02;;;28.60;34.50;;;;;;5027736;28;20037;-71
2021/06/16 10:53:13;;;;;;;8.10;1.50;;;28.40;33.10;;;;;;5027671;28;20140;-69
2021/06/16 10:55:55;;;;;;;6.38;1.10;;;28.40;33.40;;;;;;5027642;28;20104;-70
2021/06/16 10:58:22;;;;;;;3.10;1.05;;;28.30;34.70;;;;;;5028068;28;20037;-68
2021/06/16 11:01:20;;;;;;;4.13;1.30;;;28.30;33.70;;;;;;5027588;28;20049;-69
2021/06/16 11:03:46;;;;;;;8.43;1.42;;;28.20;34.40;;;;;;5015286;28;20082;-68
2021/06/16 11:06:41;;;;;;;4.85;1.17;;;28.30;34.70;;;;;;5027276;28;20025;-69
2021/06/16 11:09:09;;;;;;;2.60;0.95;;;28.30;33.60;;;;;;5022635;28;20045;-69
2021/06/16 11:11:49;;;;;;;9.10;1.20;;;28.10;33.90;;;;;;5027163;28;20034;-69
2021/06/16 11:14:34;;;;;;;2.42;1.02;;;28.10;36.00;;;;;;5027391;28;20068;-69
2021/06/16 11:17:06;;;;;;;3.85;1.30;;;28.30;34.60;;;;;;5027674;28;20030;-68
2021/06/16 11:19:34;;;;;;;5.07;1.20;;;28.40;35.00;;;;;;5027329;28;20025;-68
2021/06/16 11:22:24;;;;;;;4.93;1.20;;;28.40;32.80;;;;;;5027669;28;20037;-68
2021/06/16 11:25:18;;;;;;;2.80;1.25;;;28.30;34.30;;;;;;5017221;28;20037;-68
2021/06/16 11:27:53;;;;;;;1.63;0.82;;;28.50;34.10;;;;;;5022436;28;20246;-69
2021/06/16 11:30:55;;;;;;;6.10;1.40;;;28.50;33.20;;;;;;5027209;28;20026;-67
2021/06/16 11:33:26;;;;;;;6.15;1.00;;;28.50;33.30;;;;;;5027087;28;20037;-68
2021/06/16 11:35:52;;;;;;;3.53;1.00;;;28.50;32.60;;;;;;5026350;28;20037;-68
2021/06/16 11:38:20;;;;;;;4.82;1.23;;;28.50;32.30;;;;;;5026602;28;20035;-69
2021/06/16 11:41:08;;;;;;;3.80;0.90;;;28.50;31.90;;;;;;5026701;28;20035;-68
2021/06/16 11:43:47;;;;;;;4.65;0.98;;;28.40;33.10;;;;;;5027052;28;20414;-69
2021/06/16 11:46:34;;;;;;;1.23;0.68;;;28.60;31.20;;;;;;5025602;28;20033;-69
2021/06/16 11:49:27;;;;;;;7.90;0.70;;;28.50;30.30;;;;;;5027168;28;20036;-69
2021/06/16 11:52:00;;;;;;;2.30;0.95;;;28.50;31.90;;;;;;5026764;28;20489;-69
2021/06/16 11:54:32;;;;;;;2.53;0.77;;;28.40;30.20;;;;;;5026787;28;20033;-67
2021/06/16 11:57:01;;;;;;;1.67;0.80;;;28.40;32.40;;;;;;5025840;28;20449;-69
2021/06/16 11:59:34;;;;;;;5.70;1.20;;;28.50;31.80;;;;;;5026848;28;20105;-68
2021/06/16 12:02:14;;;;;;;2.33;0.68;;;28.50;32.60;;;;;;5026570;28;20024;-69
2021/06/16 12:04:49;;;;;;;6.00;1.35;;;28.60;32.90;;;;;;5025163;28;20029;-69
2021/06/16 12:07:37;;;;;;;4.90;1.40;;;28.80;33.20;;;;;;5026867;28;20076;-69
2021/06/16 12:10:08;;;;;;;1.88;0.85;;;28.90;32.70;;;;;;5026411;28;20044;-69
2021/06/16 12:12:45;;;;;;;2.05;1.30;;;29.00;32.90;;;;;;5026297;28;20611;-69
2021/06/16 12:15:19;;;;;;;1.55;0.73;;;28.90;31.50;;;;;;5026670;28;20029;-69
2021/06/16 12:18:02;;;;;;;2.45;0.90;;;28.90;32.30;;;;;;5025353;28;20776;-68
2021/06/16 12:20:31;;;;;;;4.65;0.73;;;28.80;33.10;;;;;;5026137;28;20064;-68
2021/06/16 12:22:58;;;;;;;2.47;1.10;;;28.70;32.90;;;;;;5026378;28;20017;-69
2021/06/16 12:25:34;;;;;;;17.58;1.23;;;28.80;33.10;;;;;;5026515;28;20105;-69
2021/06/16 12:28:00;;;;;;;1.42;0.90;;;28.80;32.20;;;;;;5026075;28;20502;-68
2021/06/16 12:30:29;;;;;;;2.50;0.82;;;28.80;32.90;;;;;;5025182;28;20480;-68
2021/06/16 12:33:24;;;;;;;4.20;1.20;;;28.90;33.10;;;;;;5026080;28;20045;-69
2021/06/16 12:36:08;;;;;;;4.55;1.10;;;28.80;34.10;;;;;;5025378;28;20053;-69
2021/06/16 12:38:38;;;;;;;5.15;0.95;;;28.80;33.20;;;;;;5025902;28;20057;-69
2021/06/16 12:41:32;;;;;;;1.33;0.98;;;28.80;33.20;;;;;;5026235;28;20038;-67
2021/06/16 12:44:17;;;;;;;3.45;1.00;;;28.80;33.00;;;;;;5024436;28;20064;-66
2021/06/16 12:47:08;;;;;;;7.20;0.90;;;29.10;33.70;;;;;;5024211;28;20087;-68
2021/06/16 12:49:55;;;;;;;2.90;0.80;;;29.10;32.10;;;;;;5025244;28;20036;-68
2021/06/16 12:52:28;;;;;;;2.45;0.80;;;29.10;31.30;;;;;;5025492;28;20037;-68
2021/06/16 12:54:54;;;;;;;2.78;0.93;;;29.00;31.30;;;;;;5026271;28;20413;-68
2021/06/16 12:57:21;;;;;;;1.90;0.60;;;28.90;31.70;;;;;;5025755;28;20036;-68